createdAt,value
2023-02-11T00:01:21.288Z,-1.59
2023-02-11T00:03:49.536Z,-1.59
2023-02-11T00:06:17.828Z,-1.60
2023-02-11T00:08:46.020Z,-1.62
2023-02-11T00:11:16.312Z,-1.69
2023-02-11T00:13:47.281Z,-1.66
2023-02-11T00:16:18.133Z,-1.66
2023-02-11T00:18:47.068Z,-1.66
2023-02-11T00:21:16.864Z,-1.67
2023-02-11T00:23:46.222Z,-1.67
2023-02-11T00:26:15.227Z,-1.66
2023-02-11T00:28:43.777Z,-1.64
2023-02-11T00:31:15.122Z,-1.66
2023-02-11T00:33:43.394Z,-1.64
2023-02-11T00:36:15.509Z,-1.63
2023-02-11T00:38:44.354Z,-1.64
2023-02-11T00:41:13.105Z,-1.66
2023-02-11T00:43:41.987Z,-1.66
2023-02-11T00:46:10.720Z,-1.67
2023-02-11T00:48:40.542Z,-1.68
2023-02-11T00:51:08.963Z,-1.70
2023-02-11T00:53:37.584Z,-1.70
2023-02-11T00:56:06.637Z,-1.74
2023-02-11T00:58:34.906Z,-1.74
2023-02-11T01:01:03.072Z,-1.75
2023-02-11T01:03:31.675Z,-1.75
2023-02-11T01:06:01.558Z,-1.79
2023-02-11T01:08:29.738Z,-1.80
2023-02-11T01:10:58.723Z,-1.88
2023-02-11T01:13:28.174Z,-1.88
2023-02-11T01:15:56.386Z,-1.86
2023-02-11T01:18:24.433Z,-1.87
2023-02-11T01:20:54.618Z,-1.87
2023-02-11T01:23:26.874Z,-1.88
2023-02-11T01:25:55.506Z,-1.86
2023-02-11T01:28:26.172Z,-1.88
2023-02-11T01:30:55.137Z,-1.86
2023-02-11T01:33:24.417Z,-1.88
2023-02-11T01:35:53.288Z,-1.88
2023-02-11T01:38:24.949Z,-1.91
2023-02-11T01:40:54.830Z,-1.91
2023-02-11T01:43:24.125Z,-1.86
2023-02-11T01:46:05.501Z,-1.90
2023-02-11T01:48:37.639Z,-1.89
2023-02-11T01:51:10.595Z,-1.91
2023-02-11T01:53:57.507Z,-1.92
2023-02-11T01:56:45.429Z,-1.94
2023-02-11T01:59:19.356Z,-1.97
2023-02-11T02:01:52.394Z,-2.00
2023-02-11T02:04:21.462Z,-2.03
2023-02-11T02:06:54.671Z,-2.05
2023-02-11T02:09:29.205Z,-2.03
2023-02-11T02:11:57.685Z,-2.02
2023-02-11T02:14:26.606Z,-1.96
2023-02-11T02:16:54.542Z,-1.94
2023-02-11T02:19:50.288Z,-1.92
2023-02-11T02:22:46.677Z,-1.91
2023-02-11T02:25:36.642Z,-1.85
2023-02-11T02:28:21.686Z,-1.81
2023-02-11T02:31:15.282Z,-1.77
2023-02-11T02:33:51.299Z,-1.73
2023-02-11T02:36:24.758Z,-1.75
2023-02-11T02:38:58.494Z,-1.68
2023-02-11T02:41:30.718Z,-1.67
2023-02-11T02:43:58.964Z,-1.66
2023-02-11T02:46:30.624Z,-1.65
2023-02-11T02:49:01.111Z,-1.67
2023-02-11T02:51:58.282Z,-1.64
2023-02-11T02:54:51.135Z,-1.59
2023-02-11T02:57:33.791Z,-1.58
2023-02-11T03:00:14.051Z,-1.52
2023-02-11T03:02:53.601Z,-1.49
2023-02-11T03:05:32.506Z,-1.45
2023-02-11T03:08:08.486Z,-1.42
2023-02-11T03:10:40.010Z,-1.42
2023-02-11T03:13:08.945Z,-1.42
2023-02-11T03:15:45.540Z,-1.38
2023-02-11T03:18:17.116Z,-1.34
2023-02-11T03:20:50.695Z,-1.32
2023-02-11T03:23:23.816Z,-1.21
2023-02-11T03:25:57.077Z,-1.24
2023-02-11T03:28:32.516Z,-1.21
2023-02-11T03:31:11.324Z,-1.28
2023-02-11T03:33:44.911Z,-1.28
2023-02-11T03:36:19.651Z,-1.21
2023-02-11T03:38:51.870Z,-1.21
2023-02-11T03:41:24.934Z,-1.20
2023-02-11T03:43:55.466Z,-1.19
2023-02-11T03:46:27.119Z,-1.14
2023-02-11T03:48:57.994Z,-1.14
2023-02-11T03:51:30.825Z,-1.10
2023-02-11T03:54:02.398Z,-1.05
2023-02-11T03:56:34.755Z,-1.08
2023-02-11T03:59:02.745Z,-1.12
2023-02-11T04:01:30.790Z,-1.19
2023-02-11T04:03:59.338Z,-1.12
2023-02-11T04:06:28.762Z,-1.14
2023-02-11T04:08:56.999Z,-1.16
2023-02-11T04:11:25.308Z,-1.15
2023-02-11T04:13:53.276Z,-1.15
2023-02-11T04:16:21.779Z,-1.14
2023-02-11T04:18:49.867Z,-1.12
2023-02-11T04:21:17.955Z,-1.10
2023-02-11T04:23:47.644Z,-1.12
2023-02-11T04:26:15.695Z,-1.08
2023-02-11T04:28:43.584Z,-1.07
2023-02-11T04:31:13.202Z,-1.03
2023-02-11T04:33:41.370Z,-1.05
2023-02-11T04:36:09.732Z,-1.00
2023-02-11T04:38:38.131Z,-0.95
2023-02-11T04:41:07.453Z,-0.94
2023-02-11T04:43:35.555Z,-0.89
2023-02-11T04:46:03.690Z,-0.85
2023-02-11T04:48:31.709Z,-0.81
2023-02-11T04:51:00.193Z,-0.77
2023-02-11T04:53:28.507Z,-0.74
2023-02-11T04:55:56.645Z,-0.65
2023-02-11T04:58:26.437Z,-0.59
2023-02-11T05:00:54.644Z,-0.53
2023-02-11T05:03:22.612Z,-0.51
2023-02-11T05:05:51.531Z,-0.51
2023-02-11T05:08:21.525Z,-0.45
2023-02-11T05:10:49.478Z,-0.41
2023-02-11T05:13:17.850Z,-0.38
2023-02-11T05:15:47.168Z,-0.35
2023-02-11T05:18:15.615Z,-0.29
2023-02-11T05:20:43.916Z,-0.26
2023-02-11T05:23:11.810Z,-0.19
2023-02-11T05:25:40.001Z,-0.10
2023-02-11T05:28:08.455Z,-0.07
2023-02-11T05:30:36.503Z,-0.07
2023-02-11T05:33:06.373Z,0.15
2023-02-11T05:35:34.739Z,0.03
2023-02-11T05:38:02.654Z,0.03
2023-02-11T05:40:30.617Z,0.03
2023-02-11T05:42:59.560Z,0.04
2023-02-11T05:45:27.816Z,0.09
2023-02-11T05:47:56.387Z,0.07
2023-02-11T05:50:26.903Z,0.08
2023-02-11T05:52:55.192Z,0.14
2023-02-11T05:55:23.820Z,0.10
2023-02-11T05:57:52.233Z,0.09
2023-02-11T06:00:20.817Z,0.16
2023-02-11T06:02:49.995Z,0.17
2023-02-11T06:05:18.370Z,0.18
2023-02-11T06:07:47.839Z,0.17
2023-02-11T06:10:16.539Z,0.16
2023-02-11T06:12:44.898Z,0.14
2023-02-11T06:15:13.395Z,0.12
2023-02-11T06:17:41.827Z,0.05
2023-02-11T06:20:11.432Z,-0.02
2023-02-11T06:22:39.657Z,-0.04
2023-02-11T06:25:11.526Z,-0.08
2023-02-11T06:27:40.401Z,-0.10
2023-02-11T06:30:09.751Z,-0.12
2023-02-11T06:32:46.153Z,-0.16
2023-02-11T06:35:15.453Z,-0.16
2023-02-11T06:37:44.289Z,-0.13
2023-02-11T06:40:14.365Z,-0.10
2023-02-11T06:42:42.744Z,-0.11
2023-02-11T06:45:12.240Z,-0.12
2023-02-11T06:47:41.303Z,-0.20
2023-02-11T06:50:12.114Z,-0.20
2023-02-11T06:52:40.115Z,-0.19
2023-02-11T06:55:08.703Z,-0.20
2023-02-11T06:57:38.540Z,-0.17
2023-02-11T07:00:07.595Z,-0.15
2023-02-11T07:02:36.247Z,-0.14
2023-02-11T07:05:04.459Z,-0.06
2023-02-11T07:07:34.199Z,-0.02
2023-02-11T07:10:03.295Z,0.02
2023-02-11T07:12:31.622Z,0.05
2023-02-11T07:15:00.858Z,0.08
2023-02-11T07:17:28.712Z,0.09
2023-02-11T07:19:57.108Z,0.13
2023-02-11T07:22:25.300Z,0.16
2023-02-11T07:24:53.390Z,0.21
2023-02-11T07:27:21.818Z,0.25
2023-02-11T07:29:50.093Z,0.28
2023-02-11T07:32:19.476Z,0.35
2023-02-11T07:34:48.554Z,0.40
2023-02-11T07:37:16.898Z,0.46
2023-02-11T07:39:44.804Z,0.50
2023-02-11T07:42:13.271Z,0.58
2023-02-11T07:44:41.290Z,0.65
2023-02-11T07:47:09.334Z,0.73
2023-02-11T07:49:39.173Z,0.78
2023-02-11T07:52:07.095Z,0.86
2023-02-11T07:54:35.013Z,0.95
2023-02-11T07:57:03.920Z,1.01
2023-02-11T07:59:31.903Z,1.11
2023-02-11T08:02:00.204Z,1.22
2023-02-11T08:04:28.906Z,1.33
2023-02-11T08:06:59.312Z,1.46
2023-02-11T08:09:27.270Z,1.57
2023-02-11T08:11:55.551Z,1.70
2023-02-11T08:14:25.284Z,1.81
2023-02-11T08:16:53.608Z,1.88
2023-02-11T08:19:22.319Z,2.04
2023-02-11T08:21:51.224Z,2.10
2023-02-11T08:24:21.194Z,2.20
2023-02-11T08:26:49.640Z,2.25
2023-02-11T08:29:18.686Z,2.29
2023-02-11T08:31:49.069Z,2.30
2023-02-11T08:34:19.407Z,2.33
2023-02-11T08:36:48.650Z,2.37
2023-02-11T08:39:20.494Z,2.37
2023-02-11T08:41:51.976Z,2.36
2023-02-11T08:44:21.698Z,2.38
2023-02-11T08:46:50.959Z,2.55
2023-02-11T08:49:19.626Z,2.73
2023-02-11T08:51:48.000Z,2.94
2023-02-11T08:54:16.746Z,3.06
2023-02-11T08:56:46.806Z,3.17
2023-02-11T08:59:18.121Z,3.25
2023-02-11T09:01:47.174Z,3.27
2023-02-11T09:04:15.675Z,3.33
2023-02-11T09:06:44.414Z,3.43
2023-02-11T09:09:14.207Z,3.60
2023-02-11T09:11:43.656Z,3.76
2023-02-11T09:14:20.365Z,3.96
2023-02-11T09:16:49.942Z,4.11
2023-02-11T09:19:19.172Z,4.22
2023-02-11T09:21:47.851Z,4.38
2023-02-11T09:24:16.873Z,4.52
2023-02-11T09:26:45.204Z,4.65
2023-02-11T09:29:13.569Z,4.83
2023-02-11T09:31:43.518Z,5.01
2023-02-11T09:34:12.920Z,5.17
2023-02-11T09:36:42.155Z,5.34
2023-02-11T09:39:13.648Z,5.34
2023-02-11T09:42:04.143Z,5.32
2023-02-11T09:44:34.689Z,5.32
2023-02-11T09:47:06.688Z,5.32
2023-02-11T09:49:41.414Z,5.32
2023-02-11T09:52:20.600Z,5.27
2023-02-11T09:54:56.228Z,5.28
2023-02-11T09:57:29.278Z,5.35
2023-02-11T09:59:58.331Z,5.39
2023-02-11T10:02:38.113Z,5.52
2023-02-11T10:05:22.889Z,5.69
2023-02-11T10:08:02.176Z,5.73
2023-02-11T10:10:43.695Z,5.81
2023-02-11T10:13:32.124Z,5.89
2023-02-11T10:16:09.598Z,6.03
2023-02-11T10:19:19.475Z,6.20
2023-02-11T10:22:00.412Z,6.31
2023-02-11T10:24:29.933Z,6.45
2023-02-11T10:26:57.852Z,6.48
2023-02-11T10:29:37.203Z,6.52
2023-02-11T10:32:12.426Z,6.53
2023-02-11T10:34:42.920Z,6.57
2023-02-11T10:37:13.945Z,6.66
2023-02-11T10:39:42.755Z,6.71
2023-02-11T10:42:13.641Z,6.81
2023-02-11T10:44:48.809Z,6.91
2023-02-11T10:47:22.568Z,7.11
2023-02-11T10:49:52.293Z,7.04
2023-02-11T10:52:23.752Z,6.99
2023-02-11T10:55:00.463Z,6.96
2023-02-11T10:57:32.646Z,7.03
2023-02-11T11:00:03.778Z,7.14
2023-02-11T11:02:34.724Z,7.20
2023-02-11T11:05:08.023Z,7.11
2023-02-11T11:07:37.908Z,7.24
2023-02-11T11:10:26.461Z,7.31
2023-02-11T11:12:54.323Z,7.44
2023-02-11T11:15:24.626Z,7.53
2023-02-11T11:18:21.582Z,7.61
2023-02-11T11:20:59.727Z,7.52
2023-02-11T11:23:29.760Z,7.52
2023-02-11T11:26:07.182Z,7.50
2023-02-11T11:28:41.648Z,7.37
2023-02-11T11:31:15.950Z,7.27
2023-02-11T11:33:45.990Z,7.23
2023-02-11T11:36:21.195Z,7.19
2023-02-11T11:38:54.013Z,7.17
2023-02-11T11:41:26.159Z,7.21
2023-02-11T11:43:59.602Z,7.23
2023-02-11T11:46:31.353Z,7.42
2023-02-11T11:49:19.628Z,7.60
2023-02-11T11:51:56.178Z,7.86
2023-02-11T11:54:29.323Z,8.05
2023-02-11T11:57:01.964Z,8.37
2023-02-11T11:59:30.694Z,8.59
2023-02-11T12:02:19.433Z,8.64
2023-02-11T12:05:04.003Z,8.60
2023-02-11T12:07:47.844Z,8.47
2023-02-11T12:10:39.143Z,8.21
2023-02-11T12:13:21.858Z,8.27
2023-02-11T12:15:59.199Z,8.16
2023-02-11T12:19:00.313Z,8.09
2023-02-11T12:21:43.298Z,7.97
2023-02-11T12:24:29.601Z,7.99
2023-02-11T12:27:04.573Z,7.95
2023-02-11T12:29:43.713Z,8.01
2023-02-11T12:32:27.858Z,8.01
2023-02-11T12:35:17.147Z,7.99
2023-02-11T12:37:58.288Z,8.02
2023-02-11T12:40:38.987Z,8.04
2023-02-11T12:43:19.741Z,8.04
2023-02-11T12:46:02.683Z,8.05
2023-02-11T12:48:42.608Z,8.05
2023-02-11T12:51:24.355Z,8.09
2023-02-11T12:54:19.203Z,8.05
2023-02-11T12:56:53.679Z,8.00
2023-02-11T12:59:34.835Z,8.12
2023-02-11T13:02:10.786Z,8.17
2023-02-11T13:04:42.825Z,8.16
2023-02-11T13:07:16.798Z,8.18
2023-02-11T13:09:50.704Z,8.17
2023-02-11T13:12:38.575Z,8.20
2023-02-11T13:15:12.041Z,8.32
2023-02-11T13:17:49.011Z,8.43
2023-02-11T13:20:27.602Z,8.51
2023-02-11T13:23:03.697Z,8.64
2023-02-11T13:25:39.121Z,8.69
2023-02-11T13:28:21.931Z,8.68
2023-02-11T13:30:58.056Z,8.73
2023-02-11T13:33:34.249Z,8.85
2023-02-11T13:36:16.413Z,8.93
2023-02-11T13:38:57.932Z,9.09
2023-02-11T13:41:31.022Z,9.16
2023-02-11T13:44:03.308Z,9.14
2023-02-11T13:46:51.305Z,9.10
2023-02-11T13:49:22.260Z,9.06
2023-02-11T13:51:51.501Z,9.09
2023-02-11T13:54:27.596Z,9.18
2023-02-11T13:57:32.789Z,9.26
2023-02-11T14:00:06.182Z,9.11
2023-02-11T14:02:54.160Z,9.14
2023-02-11T14:05:45.677Z,9.15
2023-02-11T14:08:49.247Z,9.20
2023-02-11T14:11:48.549Z,9.38
2023-02-11T14:14:36.575Z,9.49
2023-02-11T14:17:35.958Z,9.62
2023-02-11T14:20:25.698Z,9.55
2023-02-11T14:22:55.036Z,9.67
2023-02-11T14:25:25.548Z,9.77
2023-02-11T14:27:59.236Z,9.76
2023-02-11T14:30:36.460Z,9.65
2023-02-11T14:33:38.002Z,9.43
2023-02-11T14:36:17.696Z,9.18
2023-02-11T14:39:00.169Z,9.00
2023-02-11T14:41:31.399Z,8.86
2023-02-11T14:44:04.770Z,8.80
2023-02-11T14:46:34.618Z,8.78
2023-02-11T14:49:06.352Z,8.68
2023-02-11T14:51:37.580Z,8.69
2023-02-11T14:54:15.206Z,8.68
2023-02-11T14:56:44.645Z,8.70
2023-02-11T14:59:19.249Z,8.61
2023-02-11T15:01:50.915Z,8.57
2023-02-11T15:04:28.114Z,8.65
2023-02-11T15:06:59.706Z,8.74
2023-02-11T15:09:35.095Z,8.83
2023-02-11T15:12:03.719Z,8.82
2023-02-11T15:14:33.853Z,8.79
2023-02-11T15:17:06.128Z,8.83
2023-02-11T15:19:37.688Z,8.82
2023-02-11T15:22:11.152Z,8.76
2023-02-11T15:24:40.510Z,8.65
2023-02-11T15:27:15.021Z,8.59
2023-02-11T15:29:47.719Z,8.50
2023-02-11T15:32:22.191Z,8.41
2023-02-11T15:34:53.505Z,8.30
2023-02-11T15:37:23.959Z,8.27
2023-02-11T15:39:54.062Z,8.22
2023-02-11T15:42:24.937Z,8.14
2023-02-11T15:45:13.117Z,8.03
2023-02-11T15:47:43.724Z,7.95
2023-02-11T15:50:24.020Z,7.92
2023-02-11T15:52:53.694Z,7.89
2023-02-11T15:55:22.148Z,7.79
2023-02-11T15:57:55.697Z,7.74
2023-02-11T16:00:26.210Z,7.64
2023-02-11T16:02:54.938Z,7.61
2023-02-11T16:05:36.513Z,7.59
2023-02-11T16:08:21.121Z,7.51
2023-02-11T16:10:58.878Z,7.42
2023-02-11T16:13:30.276Z,7.42
2023-02-11T16:16:01.922Z,7.38
2023-02-11T16:18:39.621Z,7.36
2023-02-11T16:21:17.340Z,7.36
2023-02-11T16:23:52.658Z,7.27
2023-02-11T16:26:28.943Z,7.22
2023-02-11T16:29:09.184Z,7.18
2023-02-11T16:31:39.649Z,7.08
2023-02-11T16:34:14.943Z,7.04
2023-02-11T16:36:45.084Z,7.01
2023-02-11T16:39:14.397Z,6.97
2023-02-11T16:41:42.377Z,7.01
2023-02-11T16:44:10.710Z,7.02
2023-02-11T16:46:39.107Z,6.87
2023-02-11T16:49:18.206Z,6.91
2023-02-11T16:51:49.849Z,6.88
2023-02-11T16:54:19.756Z,6.78
2023-02-11T16:56:47.941Z,6.80
2023-02-11T16:59:16.143Z,6.72
2023-02-11T17:01:45.286Z,6.67
2023-02-11T17:04:18.773Z,6.68
2023-02-11T17:06:49.350Z,6.63
2023-02-11T17:09:20.720Z,6.58
2023-02-11T17:11:49.893Z,6.52
2023-02-11T17:14:18.693Z,6.49
2023-02-11T17:16:49.502Z,6.45
2023-02-11T17:19:21.162Z,6.41
2023-02-11T17:21:51.931Z,6.37
2023-02-11T17:24:21.038Z,6.32
2023-02-11T17:26:50.340Z,6.32
2023-02-11T17:29:21.835Z,6.30
2023-02-11T17:31:51.589Z,6.26
2023-02-11T17:34:20.365Z,6.24
2023-02-11T17:36:49.041Z,6.22
2023-02-11T17:39:19.290Z,6.21
2023-02-11T17:41:47.187Z,6.18
2023-02-11T17:44:16.723Z,6.18
2023-02-11T17:46:45.184Z,6.17
2023-02-11T17:49:13.184Z,6.15
2023-02-11T17:51:42.226Z,6.15
2023-02-11T17:54:13.209Z,6.14
2023-02-11T17:56:43.850Z,6.14
2023-02-11T17:59:13.213Z,6.14
2023-02-11T18:01:42.937Z,6.13
2023-02-11T18:04:15.974Z,6.11
2023-02-11T18:06:44.274Z,6.09
2023-02-11T18:09:12.810Z,6.07
2023-02-11T18:11:42.780Z,6.06
2023-02-11T18:14:11.853Z,6.06
2023-02-11T18:16:43.177Z,6.05
2023-02-11T18:19:12.521Z,6.03
2023-02-11T18:21:40.728Z,6.01
2023-02-11T18:24:08.905Z,6.00
2023-02-11T18:26:44.377Z,6.00
2023-02-11T18:29:13.455Z,5.97
2023-02-11T18:31:41.448Z,5.96
2023-02-11T18:34:10.713Z,5.94
2023-02-11T18:36:39.535Z,5.93
2023-02-11T18:39:07.873Z,5.94
2023-02-11T18:41:38.094Z,5.93
2023-02-11T18:44:07.906Z,5.92
2023-02-11T18:46:35.947Z,5.94
2023-02-11T18:49:04.254Z,5.91
2023-02-11T18:51:32.717Z,5.93
2023-02-11T18:54:01.723Z,5.90
2023-02-11T18:56:29.740Z,5.85
2023-02-11T18:59:01.149Z,5.85
2023-02-11T19:01:33.489Z,5.82
2023-02-11T19:04:04.452Z,5.79
2023-02-11T19:06:35.283Z,5.74
2023-02-11T19:09:07.636Z,5.77
2023-02-11T19:11:55.861Z,5.78
2023-02-11T19:14:26.637Z,5.77
2023-02-11T19:16:57.981Z,5.75
2023-02-11T19:19:28.771Z,5.76
2023-02-11T19:21:58.416Z,5.78
2023-02-11T19:24:29.324Z,5.74
2023-02-11T19:27:00.173Z,5.75
2023-02-11T19:29:28.638Z,5.75
2023-02-11T19:31:59.264Z,5.75
2023-02-11T19:34:27.583Z,5.73
2023-02-11T19:36:56.840Z,5.72
2023-02-11T19:39:25.544Z,5.70
2023-02-11T19:41:53.581Z,5.69
2023-02-11T19:44:21.571Z,5.69
2023-02-11T19:46:53.163Z,5.68
2023-02-11T19:49:25.988Z,5.67
2023-02-11T19:51:55.899Z,5.65
2023-02-11T19:54:23.968Z,5.65
2023-02-11T19:56:51.911Z,5.65
2023-02-11T19:59:21.685Z,5.65
2023-02-11T20:01:50.130Z,5.63
2023-02-11T20:04:18.374Z,5.65
2023-02-11T20:06:49.550Z,5.64
2023-02-11T20:09:17.667Z,5.62
2023-02-11T20:11:45.533Z,5.63
2023-02-11T20:14:15.332Z,5.61
2023-02-11T20:16:49.236Z,5.60
2023-02-11T20:19:20.679Z,5.60
2023-02-11T20:21:53.734Z,5.56
2023-02-11T20:24:22.806Z,5.56
2023-02-11T20:26:55.274Z,5.54
2023-02-11T20:29:23.952Z,5.54
2023-02-11T20:31:52.544Z,5.53
2023-02-11T20:34:21.913Z,5.51
2023-02-11T20:36:52.861Z,5.50
2023-02-11T20:39:23.056Z,5.48
2023-02-11T20:41:51.860Z,5.48
2023-02-11T20:44:22.493Z,5.46
2023-02-11T20:46:51.128Z,5.47
2023-02-11T20:49:22.316Z,5.48
2023-02-11T20:51:53.752Z,5.48
2023-02-11T20:54:23.471Z,5.45
2023-02-11T20:56:52.322Z,5.43
2023-02-11T20:59:21.149Z,5.41
2023-02-11T21:01:50.609Z,5.40
2023-02-11T21:04:20.619Z,5.38
2023-02-11T21:06:53.655Z,5.35
2023-02-11T21:09:24.618Z,5.33
2023-02-11T21:11:54.339Z,5.30
2023-02-11T21:14:26.752Z,5.31
2023-02-11T21:16:55.040Z,5.29
2023-02-11T21:19:23.236Z,5.29
2023-02-11T21:21:55.440Z,5.25
2023-02-11T21:24:23.804Z,5.25
2023-02-11T21:26:51.678Z,5.26
2023-02-11T21:29:19.698Z,5.27
2023-02-11T21:31:48.305Z,5.27
2023-02-11T21:34:16.332Z,5.30
2023-02-11T21:36:45.751Z,5.34
2023-02-11T21:39:15.244Z,5.35
2023-02-11T21:41:43.493Z,5.35
2023-02-11T21:44:11.928Z,5.36
2023-02-11T21:46:40.035Z,5.35
2023-02-11T21:49:08.080Z,5.33
2023-02-11T21:51:36.778Z,5.31
2023-02-11T21:54:05.037Z,5.29
2023-02-11T21:56:35.506Z,5.28
2023-02-11T21:59:03.835Z,5.29
2023-02-11T22:01:35.395Z,5.26
2023-02-11T22:04:04.219Z,5.24
2023-02-11T22:06:35.213Z,5.23
2023-02-11T22:09:05.074Z,5.18
2023-02-11T22:11:34.916Z,5.16
2023-02-11T22:14:03.269Z,5.16
2023-02-11T22:16:32.657Z,5.16
2023-02-11T22:19:02.380Z,5.11
2023-02-11T22:21:30.618Z,5.13
2023-02-11T22:24:00.853Z,5.12
2023-02-11T22:26:29.519Z,5.06
2023-02-11T22:28:58.935Z,5.04
2023-02-11T22:31:30.042Z,5.05
2023-02-11T22:33:59.230Z,5.06
2023-02-11T22:36:30.558Z,5.06
2023-02-11T22:39:02.336Z,5.06
2023-02-11T22:41:33.507Z,5.05
2023-02-11T22:44:02.816Z,5.05
2023-02-11T22:46:31.152Z,5.06
2023-02-11T22:48:59.122Z,5.06
2023-02-11T22:51:28.727Z,5.06
2023-02-11T22:53:58.458Z,5.07
2023-02-11T22:56:27.545Z,5.06
2023-02-11T22:58:58.312Z,5.06
2023-02-11T23:01:27.928Z,5.05
2023-02-11T23:03:56.035Z,5.02
2023-02-11T23:06:24.054Z,4.98
2023-02-11T23:08:52.675Z,4.92
2023-02-11T23:11:21.871Z,4.90
2023-02-11T23:13:52.412Z,4.90
2023-02-11T23:16:22.406Z,4.91
2023-02-11T23:18:52.980Z,4.92
2023-02-11T23:21:23.648Z,4.92
2023-02-11T23:23:57.280Z,4.89
2023-02-11T23:26:26.586Z,4.87
2023-02-11T23:28:55.016Z,4.88
2023-02-11T23:31:25.842Z,4.92
2023-02-11T23:33:55.671Z,4.93
2023-02-11T23:36:24.196Z,4.96
2023-02-11T23:38:55.519Z,4.95
2023-02-11T23:41:23.852Z,4.93
2023-02-11T23:43:52.821Z,4.95
2023-02-11T23:46:22.347Z,4.95
2023-02-11T23:48:51.127Z,4.93
2023-02-11T23:51:21.039Z,4.92
2023-02-11T23:53:50.414Z,4.93
2023-02-11T23:56:20.408Z,4.93
2023-02-11T23:58:49.788Z,4.94
